Time;durP1;ratioP1;P1;durP2;ratioP2;P2;SDS_P1;SDS_P2;PMS_P1;PMS_P2;Temp;Humidity;BMP_temperature;BMP_pressure;BME280_temperature;BME280_humidity;BME280_pressure;Samples;Min_cycle;Max_cycle;Signal;HPM_P1;HPM_P2
2023/08/05 00:00:15;;;;;;;5.10;2.20;;;15.60;99.90;;;;;;5115359;28;20710;-43
2023/08/05 00:02:41;;;;;;;5.50;2.10;;;15.60;99.90;;;;;;5115300;28;20658;-43
2023/08/05 00:05:08;;;;;;;5.07;2.60;;;15.60;99.90;;;;;;5115256;28;20203;-42
2023/08/05 00:07:33;;;;;;;4.07;2.07;;;15.60;99.90;;;;;;5115187;28;20669;-42
2023/08/05 00:09:59;;;;;;;5.93;2.43;;;15.60;99.90;;;;;;5115121;28;20174;-45
2023/08/05 00:12:24;;;;;;;6.70;2.47;;;15.60;99.90;;;;;;5115144;28;20194;-43
2023/08/05 00:14:50;;;;;;;4.63;2.27;;;15.50;99.90;;;;;;5115401;28;20196;-43
2023/08/05 00:17:15;;;;;;;3.67;2.90;;;15.50;99.90;;;;;;5115133;28;20670;-43
2023/08/05 00:19:43;;;;;;;5.70;2.63;;;15.50;99.90;;;;;;5115082;28;20187;-46
2023/08/05 00:22:08;;;;;;;5.07;2.53;;;15.50;99.90;;;;;;5114995;28;20185;-42
2023/08/05 00:24:34;;;;;;;5.67;2.27;;;15.50;99.90;;;;;;5115132;28;20666;-43
2023/08/05 00:27:00;;;;;;;3.57;2.83;;;15.40;99.90;;;;;;5114800;28;20259;-42
2023/08/05 00:29:25;;;;;;;3.87;2.07;;;15.40;99.90;;;;;;5115171;28;20732;-43
2023/08/05 00:31:51;;;;;;;3.80;2.07;;;15.40;99.90;;;;;;5114820;28;20681;-43
2023/08/05 00:34:16;;;;;;;6.10;2.47;;;15.40;99.90;;;;;;5114713;28;20178;-43
2023/08/05 00:36:42;;;;;;;2.87;2.10;;;15.40;99.90;;;;;;5114534;28;20267;-42
2023/08/05 00:39:07;;;;;;;4.67;2.30;;;15.40;99.90;;;;;;5114556;28;20685;-42
2023/08/05 00:41:33;;;;;;;4.33;2.63;;;15.40;99.90;;;;;;5114711;28;20604;-43
2023/08/05 00:43:59;;;;;;;3.90;2.20;;;15.30;99.90;;;;;;5114408;28;20209;-42
2023/08/05 00:46:25;;;;;;;4.73;2.50;;;15.30;99.90;;;;;;5114858;28;20210;-42
2023/08/05 00:48:52;;;;;;;2.63;2.20;;;15.20;99.90;;;;;;5114695;28;20186;-43
2023/08/05 00:51:19;;;;;;;5.30;2.40;;;15.20;99.90;;;;;;5096286;28;20186;-43
2023/08/05 00:53:47;;;;;;;6.80;2.47;;;15.10;99.90;;;;;;5114604;28;20186;-41
2023/08/05 00:56:15;;;;;;;4.03;2.10;;;15.10;99.90;;;;;;5114422;28;20228;-44
2023/08/05 00:58:42;;;;;;;2.67;2.47;;;15.10;99.90;;;;;;5114658;28;20197;-43
2023/08/05 01:01:08;;;;;;;4.30;2.30;;;15.00;99.90;;;;;;5114638;28;20347;-42
2023/08/05 01:03:34;;;;;;;5.23;2.70;;;15.00;99.90;;;;;;5113996;28;20209;-43
2023/08/05 01:06:01;;;;;;;3.43;1.87;;;15.00;99.90;;;;;;5113993;28;20287;-44
2023/08/05 01:08:28;;;;;;;6.30;2.57;;;14.90;99.90;;;;;;5114162;28;20175;-43
2023/08/05 01:10:53;;;;;;;6.90;2.50;;;14.90;99.90;;;;;;5114294;28;20553;-42
2023/08/05 01:13:20;;;;;;;3.33;2.60;;;14.90;99.90;;;;;;5114157;28;20186;-43
2023/08/05 01:15:46;;;;;;;4.97;2.40;;;14.90;99.90;;;;;;5113876;28;20198;-43
2023/08/05 01:18:13;;;;;;;4.67;2.53;;;14.80;99.90;;;;;;5114323;28;20212;-43
2023/08/05 01:20:45;;;;;;;3.70;2.50;;;14.90;99.90;;;;;;5114247;28;20212;-43
2023/08/05 01:23:37;;;;;;;3.83;2.43;;;14.80;99.90;;;;;;5114116;28;20209;-43
2023/08/05 01:26:05;;;;;;;16.90;3.50;;;14.80;99.90;;;;;;5095673;28;20255;-42
2023/08/05 01:28:32;;;;;;;2.50;2.20;;;14.80;99.90;;;;;;5113962;28;20185;-43
2023/08/05 01:31:00;;;;;;;5.07;2.40;;;14.80;99.90;;;;;;5113893;28;20646;-42
2023/08/05 01:33:52;;;;;;;4.57;2.33;;;14.80;99.90;;;;;;5113852;28;20273;-43
2023/08/05 01:36:41;;;;;;;5.87;2.63;;;14.70;99.90;;;;;;5113067;28;20213;-44
2023/08/05 01:39:11;;;;;;;5.10;2.70;;;14.70;99.90;;;;;;5113504;28;20206;-41
2023/08/05 01:41:37;;;;;;;4.63;2.60;;;14.70;99.90;;;;;;5113904;28;20213;-43
2023/08/05 01:47:24;;;;;;;3.73;2.47;;;14.60;99.90;;;;;;5114580;28;20731;-42
2023/08/05 01:49:50;;;;;;;6.37;2.73;;;14.60;99.90;;;;;;5096127;28;20186;-45
2023/08/05 01:52:15;;;;;;;6.57;2.80;;;14.60;99.90;;;;;;5114025;28;20282;-44
2023/08/05 01:54:41;;;;;;;4.20;2.57;;;14.50;99.90;;;;;;5113884;28;20193;-49
2023/08/05 01:57:07;;;;;;;7.97;2.67;;;14.40;99.90;;;;;;5113642;28;20206;-43
2023/08/05 01:59:32;;;;;;;4.53;2.53;;;14.40;99.90;;;;;;5095430;28;20285;-43
2023/08/05 02:01:58;;;;;;;3.57;2.40;;;14.40;99.90;;;;;;5113669;28;20178;-42
2023/08/05 02:04:24;;;;;;;4.70;2.77;;;14.30;99.90;;;;;;5113496;28;20198;-42
2023/08/05 02:06:50;;;;;;;7.87;2.47;;;14.30;99.90;;;;;;5095253;28;20700;-43
2023/08/05 02:09:15;;;;;;;5.43;2.30;;;14.20;99.90;;;;;;5114458;28;20221;-43
2023/08/05 02:11:41;;;;;;;5.53;2.50;;;14.20;99.90;;;;;;5095331;28;20197;-41
2023/08/05 02:14:07;;;;;;;4.33;2.47;;;14.10;99.90;;;;;;5113638;28;20186;-42
2023/08/05 02:16:33;;;;;;;5.20;2.50;;;14.10;99.90;;;;;;5096589;28;20225;-44
2023/08/05 02:18:59;;;;;;;5.07;2.37;;;14.10;99.90;;;;;;5099167;28;20241;-43
2023/08/05 02:21:25;;;;;;;5.57;2.70;;;14.10;99.90;;;;;;5117497;28;20210;-43
2023/08/05 02:23:52;;;;;;;6.03;2.30;;;14.00;99.90;;;;;;5117604;28;20198;-43
2023/08/05 02:26:17;;;;;;;10.17;2.70;;;13.90;99.90;;;;;;5098959;28;20207;-44
2023/08/05 02:28:45;;;;;;;5.67;3.00;;;13.90;99.90;;;;;;5117303;28;20182;-44
2023/08/05 02:31:10;;;;;;;3.40;2.30;;;13.90;99.90;;;;;;5098995;28;20269;-43
2023/08/05 02:33:36;;;;;;;5.10;2.43;;;13.90;99.90;;;;;;5117505;28;20320;-41
2023/08/05 02:36:03;;;;;;;3.53;2.07;;;13.80;99.90;;;;;;5117198;28;20205;-43
2023/08/05 02:38:28;;;;;;;5.67;1.93;;;13.80;99.90;;;;;;5098771;28;20201;-48
2023/08/05 02:40:55;;;;;;;5.30;2.73;;;13.70;99.90;;;;;;5117278;28;20201;-49
2023/08/05 02:43:20;;;;;;;7.17;2.40;;;13.70;99.90;;;;;;5117181;28;20637;-48
2023/08/05 02:45:55;;;;;;;5.57;2.07;;;13.70;99.90;;;;;;5117294;28;20202;-41
2023/08/05 02:48:25;;;;;;;4.03;2.20;;;13.60;99.90;;;;;;5116913;28;20657;-44
2023/08/05 02:50:52;;;;;;;8.23;2.80;;;13.70;99.90;;;;;;5116991;28;20178;-45
2023/08/05 02:53:19;;;;;;;4.80;2.80;;;13.60;99.90;;;;;;5098549;28;20660;-43
2023/08/05 02:55:45;;;;;;;9.90;3.20;;;13.60;99.90;;;;;;5116866;28;20198;-43
2023/08/05 02:58:10;;;;;;;4.03;2.57;;;13.50;99.90;;;;;;5098496;28;20186;-43
2023/08/05 03:00:36;;;;;;;2.97;2.53;;;13.50;99.90;;;;;;5117167;28;20540;-44
2023/08/05 03:03:02;;;;;;;5.97;3.00;;;13.50;99.90;;;;;;5116671;28;20650;-45
2023/08/05 03:05:28;;;;;;;8.67;2.73;;;13.50;99.90;;;;;;5098140;28;20303;-48
2023/08/05 03:07:55;;;;;;;3.43;2.70;;;13.40;99.90;;;;;;5098261;28;20261;-48
2023/08/05 03:10:21;;;;;;;5.53;3.03;;;13.50;99.90;;;;;;5116634;28;20529;-48
2023/08/05 03:12:47;;;;;;;5.17;3.03;;;13.40;99.90;;;;;;5116432;28;20203;-49
2023/08/05 03:15:13;;;;;;;3.23;2.70;;;13.50;99.90;;;;;;5116390;28;20193;-48
2023/08/05 03:17:38;;;;;;;6.93;3.27;;;13.50;99.90;;;;;;5097976;28;20206;-48
2023/08/05 03:20:21;;;;;;;7.07;3.03;;;13.40;99.90;;;;;;5116635;28;20661;-49
2023/08/05 03:22:47;;;;;;;6.57;3.37;;;13.40;99.90;;;;;;5116393;28;20533;-48
2023/08/05 03:25:12;;;;;;;6.67;3.43;;;13.40;99.90;;;;;;5116390;28;20202;-49
2023/08/05 03:27:38;;;;;;;4.17;3.20;;;13.40;99.90;;;;;;5116001;28;20206;-48
2023/08/05 03:30:04;;;;;;;8.33;3.90;;;13.40;99.90;;;;;;5116073;28;20179;-48
2023/08/05 03:32:30;;;;;;;5.73;3.67;;;13.30;99.90;;;;;;5116023;28;20178;-49
2023/08/05 03:34:55;;;;;;;7.37;4.00;;;13.30;99.90;;;;;;5116533;28;20278;-49
2023/08/05 03:37:21;;;;;;;4.77;3.20;;;13.30;99.90;;;;;;5115896;28;20201;-49
2023/08/05 03:39:48;;;;;;;5.17;2.90;;;13.30;99.90;;;;;;5115594;28;20223;-48
2023/08/05 03:42:13;;;;;;;6.40;3.87;;;13.30;99.90;;;;;;5115856;28;20178;-48
2023/08/05 03:44:42;;;;;;;4.87;4.07;;;13.30;99.90;;;;;;5116228;28;20655;-49
2023/08/05 03:47:08;;;;;;;6.60;3.67;;;13.30;99.90;;;;;;5115880;28;20575;-48
2023/08/05 03:49:34;;;;;;;6.30;3.90;;;13.30;99.90;;;;;;5115986;28;20178;-48
2023/08/05 03:51:59;;;;;;;9.13;3.70;;;13.30;99.90;;;;;;5115547;28;20182;-49
2023/08/05 03:54:25;;;;;;;7.77;4.10;;;13.30;99.90;;;;;;5115826;28;20193;-49
2023/08/05 03:56:51;;;;;;;7.33;4.30;;;13.30;99.90;;;;;;5097238;28;20222;-49
2023/08/05 03:59:16;;;;;;;5.43;4.03;;;13.20;99.90;;;;;;5097282;28;20558;-51
2023/08/05 04:01:43;;;;;;;3.97;3.40;;;13.30;99.90;;;;;;5115492;28;20274;-48
2023/08/05 04:04:09;;;;;;;4.77;3.30;;;13.20;99.90;;;;;;5115304;28;20194;-48
2023/08/05 04:06:34;;;;;;;4.30;3.30;;;13.20;99.90;;;;;;5097154;28;20210;-47
2023/08/05 04:09:00;;;;;;;5.77;3.67;;;13.20;99.90;;;;;;5115526;28;20182;-48
2023/08/05 04:11:26;;;;;;;4.40;3.63;;;13.20;99.90;;;;;;5115421;28;20642;-48
2023/08/05 04:13:52;;;;;;;8.73;3.97;;;13.10;99.90;;;;;;5115275;28;20666;-49
2023/08/05 04:16:19;;;;;;;5.13;3.60;;;13.10;99.90;;;;;;5115221;28;20206;-49
2023/08/05 04:18:48;;;;;;;7.17;3.93;;;13.10;99.90;;;;;;5115106;28;20174;-48
2023/08/05 04:21:14;;;;;;;3.80;3.10;;;13.10;99.90;;;;;;5115118;28;20657;-48
2023/08/05 04:23:41;;;;;;;6.60;3.30;;;13.00;99.90;;;;;;5114870;28;20206;-48
2023/08/05 04:26:07;;;;;;;5.33;3.27;;;13.00;99.90;;;;;;5115531;28;20212;-47
2023/08/05 04:28:33;;;;;;;3.60;3.07;;;13.00;99.90;;;;;;5117528;28;20269;-43
2023/08/05 04:30:59;;;;;;;5.50;3.57;;;13.00;99.90;;;;;;5116328;28;20175;-44
2023/08/05 04:33:25;;;;;;;5.70;3.20;;;13.00;99.90;;;;;;5114817;28;20197;-42
2023/08/05 04:35:51;;;;;;;5.20;3.57;;;13.00;99.90;;;;;;5114702;28;20202;-41
2023/08/05 04:38:17;;;;;;;5.53;3.63;;;12.90;99.90;;;;;;5096867;28;20179;-43
2023/08/05 04:40:43;;;;;;;4.97;4.00;;;13.00;99.90;;;;;;5095872;28;20658;-46
2023/08/05 04:43:10;;;;;;;4.90;3.93;;;13.00;99.90;;;;;;5096380;28;20186;-43
2023/08/05 04:45:36;;;;;;;6.50;3.90;;;13.00;99.90;;;;;;5114746;28;20217;-44
2023/08/05 04:48:04;;;;;;;7.80;4.50;;;13.00;99.90;;;;;;5096378;28;20280;-44
2023/08/05 04:50:29;;;;;;;5.53;3.63;;;13.00;99.90;;;;;;5096276;28;20186;-42
2023/08/05 04:52:55;;;;;;;5.27;3.83;;;13.00;99.90;;;;;;5096619;28;20186;-43
2023/08/05 04:55:21;;;;;;;9.10;4.20;;;13.00;99.90;;;;;;5114526;28;20236;-43
2023/08/05 04:57:52;;;;;;;6.20;4.50;;;13.00;99.90;;;;;;5096114;28;20190;-44
2023/08/05 05:00:18;;;;;;;6.50;4.20;;;13.10;99.90;;;;;;5096073;28;20189;-42
2023/08/05 05:02:44;;;;;;;5.07;4.10;;;13.00;99.90;;;;;;5114346;28;20193;-42
2023/08/05 05:05:11;;;;;;;5.07;4.17;;;13.10;99.90;;;;;;5114735;28;20598;-43
2023/08/05 05:07:37;;;;;;;9.50;4.63;;;13.10;99.90;;;;;;5114189;28;20226;-44
2023/08/05 05:10:02;;;;;;;5.40;4.30;;;13.10;99.90;;;;;;5114906;28;20217;-43
2023/08/05 05:12:28;;;;;;;13.80;4.63;;;13.10;99.90;;;;;;5114235;28;20207;-44
2023/08/05 05:14:54;;;;;;;5.63;4.30;;;13.10;99.90;;;;;;5114033;28;20688;-43
2023/08/05 05:17:21;;;;;;;6.10;4.63;;;13.10;99.90;;;;;;5114092;28;20206;-41
2023/08/05 05:19:47;;;;;;;8.63;4.87;;;13.10;99.90;;;;;;5095913;28;20221;-43
2023/08/05 05:22:19;;;;;;;6.03;4.20;;;13.20;99.90;;;;;;5095827;28;20649;-42
2023/08/05 05:24:45;;;;;;;8.80;4.53;;;13.20;99.90;;;;;;5114040;28;20212;-43
2023/08/05 05:27:15;;;;;;;8.17;4.63;;;13.20;99.90;;;;;;5095739;28;20258;-43
2023/08/05 05:29:43;;;;;;;12.80;5.47;;;13.20;99.90;;;;;;5114177;28;20234;-42
2023/08/05 05:32:09;;;;;;;7.40;4.83;;;13.30;99.90;;;;;;5095818;28;20193;-42
2023/08/05 05:34:35;;;;;;;7.83;5.17;;;13.40;99.90;;;;;;5095730;28;20564;-44
2023/08/05 05:37:00;;;;;;;8.73;5.50;;;13.40;99.90;;;;;;5113830;28;20202;-43
2023/08/05 05:39:26;;;;;;;9.37;5.17;;;13.60;99.90;;;;;;5113786;28;20202;-42
2023/08/05 05:41:52;;;;;;;10.50;4.97;;;13.60;99.90;;;;;;5095682;28;20202;-48
2023/08/05 05:44:18;;;;;;;10.47;5.30;;;13.70;99.90;;;;;;5113745;28;20665;-48
2023/08/05 05:46:44;;;;;;;7.50;5.50;;;13.70;99.90;;;;;;5113822;28;20289;-48
2023/08/05 05:49:10;;;;;;;6.90;5.90;;;13.80;99.90;;;;;;5114080;28;20197;-47
2023/08/05 05:51:36;;;;;;;10.40;5.50;;;13.90;99.90;;;;;;5097211;28;20190;-49
2023/08/05 05:54:02;;;;;;;8.63;5.20;;;14.00;99.90;;;;;;5118300;28;20600;-48
2023/08/05 05:56:28;;;;;;;7.77;6.57;;;14.10;99.90;;;;;;5099690;28;20209;-48
2023/08/05 05:58:54;;;;;;;12.13;7.07;;;14.20;99.90;;;;;;5099721;28;20193;-49
2023/08/05 06:01:20;;;;;;;14.57;6.83;;;14.30;99.90;;;;;;5099573;28;20198;-48
2023/08/05 06:03:46;;;;;;;12.40;7.60;;;14.40;99.90;;;;;;5117936;28;20218;-48
2023/08/05 06:06:12;;;;;;;9.70;6.87;;;14.50;99.90;;;;;;5099351;28;20244;-48
2023/08/05 06:08:38;;;;;;;9.17;7.70;;;14.60;99.90;;;;;;5117904;28;20174;-47
2023/08/05 06:11:04;;;;;;;10.10;7.17;;;14.70;99.90;;;;;;5117590;28;20585;-47
2023/08/05 06:13:30;;;;;;;9.73;7.40;;;14.70;99.90;;;;;;5117561;28;20184;-48
2023/08/05 06:15:56;;;;;;;13.17;7.17;;;14.80;99.90;;;;;;5118277;28;20200;-48
2023/08/05 06:18:22;;;;;;;14.20;7.23;;;14.80;99.90;;;;;;5117442;28;20331;-49
2023/08/05 06:20:48;;;;;;;11.80;8.17;;;14.80;99.90;;;;;;5099159;28;20186;-47
2023/08/05 06:23:14;;;;;;;9.90;7.70;;;14.90;99.90;;;;;;5099028;28;20559;-47
2023/08/05 06:25:41;;;;;;;12.03;7.80;;;15.00;99.90;;;;;;5117281;28;20206;-50
2023/08/05 06:28:07;;;;;;;12.60;7.40;;;15.00;99.90;;;;;;5099080;28;20244;-47
2023/08/05 06:30:34;;;;;;;9.40;7.37;;;15.10;99.90;;;;;;5117653;28;20205;-48
2023/08/05 06:33:00;;;;;;;12.07;7.73;;;15.20;99.90;;;;;;5098883;28;20206;-50
2023/08/05 06:35:25;;;;;;;10.40;7.40;;;15.40;99.90;;;;;;5117138;28;20561;-49
2023/08/05 06:37:51;;;;;;;11.40;7.60;;;15.60;99.90;;;;;;5117392;28;20197;-49
2023/08/05 06:40:17;;;;;;;12.80;7.93;;;15.80;99.90;;;;;;5098573;28;20235;-47
2023/08/05 06:42:43;;;;;;;10.83;7.97;;;16.00;99.90;;;;;;5098956;28;20247;-48
2023/08/05 06:45:09;;;;;;;11.07;7.87;;;16.30;99.90;;;;;;5117104;28;20565;-47
2023/08/05 06:47:35;;;;;;;13.90;8.60;;;16.60;99.90;;;;;;5099017;28;20202;-48
2023/08/05 06:50:04;;;;;;;13.93;7.70;;;16.90;99.90;;;;;;5116926;28;20174;-48
2023/08/05 06:52:30;;;;;;;10.13;7.07;;;17.20;99.90;;;;;;5098840;28;20194;-48
2023/08/05 06:54:57;;;;;;;13.93;6.90;;;17.60;99.90;;;;;;5117068;28;20236;-48
2023/08/05 06:57:23;;;;;;;12.97;6.97;;;17.80;99.90;;;;;;5117061;28;20198;-47
2023/08/05 06:59:49;;;;;;;11.87;6.50;;;18.00;99.90;;;;;;5098984;28;20189;-47
2023/08/05 07:02:14;;;;;;;8.70;6.17;;;18.10;99.90;;;;;;5118632;28;20618;-47
2023/08/05 07:04:40;;;;;;;9.03;6.07;;;18.20;99.90;;;;;;5116382;28;20202;-47
2023/08/05 07:07:06;;;;;;;8.50;6.03;;;18.30;99.90;;;;;;5098151;28;20214;-48
2023/08/05 07:09:32;;;;;;;10.67;5.90;;;18.30;99.90;;;;;;5116523;28;20201;-48
2023/08/05 07:11:58;;;;;;;9.70;6.10;;;18.30;99.90;;;;;;5098089;28;20296;-48
2023/08/05 07:14:25;;;;;;;10.90;5.73;;;18.30;99.90;;;;;;5116400;28;20213;-49
2023/08/05 07:16:50;;;;;;;7.10;5.40;;;18.20;99.90;;;;;;5098012;28;20257;-47
2023/08/05 07:19:16;;;;;;;7.77;5.47;;;18.30;99.90;;;;;;5098135;28;20267;-48
2023/08/05 07:21:42;;;;;;;11.70;5.33;;;18.40;99.90;;;;;;5116474;28;20209;-48
2023/08/05 07:24:08;;;;;;;8.70;6.10;;;18.50;99.90;;;;;;5115995;28;20205;-48
2023/08/05 07:26:34;;;;;;;6.40;5.67;;;18.60;99.90;;;;;;5116035;28;20210;-49
2023/08/05 07:28:59;;;;;;;6.90;5.83;;;18.70;99.90;;;;;;5097981;28;20242;-48
2023/08/05 07:31:25;;;;;;;7.47;5.80;;;18.90;99.90;;;;;;5116200;28;20182;-49
2023/08/05 07:33:51;;;;;;;7.20;5.30;;;18.90;99.90;;;;;;5115988;28;20187;-47
2023/08/05 07:36:17;;;;;;;8.20;5.50;;;19.10;99.90;;;;;;5097717;28;20233;-48
2023/08/05 07:38:47;;;;;;;8.40;5.80;;;19.10;99.90;;;;;;5115890;28;20657;-49
2023/08/05 07:41:14;;;;;;;9.23;5.20;;;19.10;99.90;;;;;;5097480;28;20285;-48
2023/08/05 07:43:42;;;;;;;7.80;4.73;;;19.20;99.90;;;;;;5115788;28;20208;-50
2023/08/05 07:46:11;;;;;;;11.33;5.60;;;19.30;99.90;;;;;;5097393;28;20230;-48
2023/08/05 07:48:37;;;;;;;8.00;5.23;;;19.40;99.90;;;;;;5097503;28;20190;-49
2023/08/05 07:51:06;;;;;;;8.30;5.43;;;19.40;99.90;;;;;;5097436;28;20186;-49
2023/08/05 07:53:37;;;;;;;12.67;5.97;;;19.50;99.90;;;;;;5116071;28;20187;-49
2023/08/05 07:56:09;;;;;;;9.90;5.93;;;19.50;99.90;;;;;;5115772;28;20255;-50
2023/08/05 07:58:36;;;;;;;8.20;5.50;;;19.60;99.90;;;;;;5115505;28;20186;-49
2023/08/05 08:01:01;;;;;;;7.40;5.43;;;19.60;99.90;;;;;;5116012;28;20186;-50
2023/08/05 08:03:29;;;;;;;8.40;5.50;;;19.70;99.90;;;;;;5115399;28;20186;-49
2023/08/05 08:05:55;;;;;;;10.33;5.63;;;19.90;99.90;;;;;;5115548;28;20232;-49
2023/08/05 08:08:21;;;;;;;9.00;5.40;;;20.00;99.90;;;;;;5097048;28;20186;-49
2023/08/05 08:10:47;;;;;;;7.13;5.23;;;20.10;99.90;;;;;;5115283;28;20634;-51
2023/08/05 08:13:12;;;;;;;10.30;6.00;;;20.20;99.90;;;;;;5114907;28;20201;-50
2023/08/05 08:15:38;;;;;;;10.17;5.47;;;20.30;99.90;;;;;;5114575;28;20209;-49
2023/08/05 08:18:03;;;;;;;9.83;5.43;;;20.30;99.90;;;;;;5096961;28;20316;-48
2023/08/05 08:20:29;;;;;;;6.30;4.60;;;20.40;99.90;;;;;;5115221;28;20546;-49
2023/08/05 08:22:55;;;;;;;8.13;5.17;;;20.50;99.90;;;;;;5115246;28;20214;-50
2023/08/05 08:25:20;;;;;;;10.07;5.10;;;20.60;99.90;;;;;;5096685;28;20290;-49
2023/08/05 08:27:46;;;;;;;7.37;5.80;;;20.70;99.90;;;;;;5114912;28;20603;-50
2023/08/05 08:30:12;;;;;;;8.00;4.97;;;20.80;99.90;;;;;;5114975;28;20216;-49
2023/08/05 08:32:38;;;;;;;7.30;5.50;;;20.90;99.90;;;;;;5096620;28;20531;-43
2023/08/05 08:35:05;;;;;;;7.20;4.90;;;21.00;99.90;;;;;;5096578;28;20243;-44
2023/08/05 08:37:30;;;;;;;7.60;4.70;;;21.10;99.90;;;;;;5114675;28;20202;-45
2023/08/05 08:39:56;;;;;;;5.83;4.33;;;21.30;99.90;;;;;;5096250;28;20297;-50
2023/08/05 08:42:25;;;;;;;7.03;4.00;;;21.50;99.90;;;;;;5115002;28;20179;-51
2023/08/05 08:44:52;;;;;;;5.27;3.80;;;21.60;99.90;;;;;;5114465;28;20202;-50
2023/08/05 08:47:18;;;;;;;5.33;3.83;;;21.90;99.90;;;;;;5114486;28;20653;-51
2023/08/05 08:49:46;;;;;;;5.70;3.90;;;22.00;99.90;;;;;;5096497;28;20182;-51
2023/08/05 08:52:17;;;;;;;4.67;3.67;;;22.10;99.90;;;;;;5096233;28;20186;-51
2023/08/05 08:54:43;;;;;;;6.20;4.57;;;22.20;99.90;;;;;;5114717;28;20185;-51
2023/08/05 08:57:11;;;;;;;5.43;3.60;;;22.30;99.90;;;;;;5114307;28;20670;-52
2023/08/05 08:59:37;;;;;;;6.90;3.33;;;22.50;99.90;;;;;;5114508;28;20197;-52
2023/08/05 09:02:27;;;;;;;7.33;3.57;;;22.60;99.90;;;;;;5114643;28;20182;-50
2023/08/05 09:04:54;;;;;;;3.47;2.33;;;22.70;99.90;;;;;;5113846;28;20210;-50
2023/08/05 09:07:25;;;;;;;3.77;2.20;;;22.80;99.90;;;;;;5095862;28;20572;-51
2023/08/05 09:09:51;;;;;;;6.10;2.77;;;22.80;99.90;;;;;;5096854;28;20158;-52
2023/08/05 09:12:17;;;;;;;4.70;2.30;;;22.90;99.90;;;;;;5095985;28;20178;-51
2023/08/05 09:14:43;;;;;;;5.00;2.70;;;23.00;99.90;;;;;;5114030;28;20190;-51
2023/08/05 09:17:14;;;;;;;3.10;2.33;;;23.20;99.90;;;;;;5095953;28;20681;-51
2023/08/05 09:19:42;;;;;;;2.67;1.90;;;23.20;99.90;;;;;;5114348;28;20185;-52
2023/08/05 09:22:08;;;;;;;5.23;2.00;;;23.20;99.90;;;;;;5114464;28;20181;-52
2023/08/05 09:28:04;;;;;;;4.47;1.73;;;23.40;99.90;;;;;;5098303;28;20208;-52
2023/08/05 09:31:13;;;;;;;2.83;1.57;;;23.50;99.90;;;;;;5097854;28;20273;-52
2023/08/05 09:33:48;;;;;;;1.97;1.10;;;23.50;99.90;;;;;;5092893;28;20211;-51
2023/08/05 09:37:00;;;;;;;3.33;1.13;;;23.60;99.90;;;;;;5115499;28;20228;-51
2023/08/05 09:49:53;;;;;;;1.20;0.97;;;23.60;99.90;;;;;;5115263;28;20171;-50
2023/08/05 09:52:23;;;;;;;2.33;1.10;;;23.90;99.90;;;;;;5113954;28;20537;-51
2023/08/05 09:55:46;;;;;;;1.60;1.00;;;23.90;99.90;;;;;;5097586;28;20182;-51
2023/08/05 09:58:16;;;;;;;0.90;0.90;;;23.90;99.90;;;;;;5114217;28;20185;-52
2023/08/05 10:00:45;;;;;;;2.03;1.00;;;23.80;99.90;;;;;;5114744;28;20205;-50
2023/08/05 10:04:04;;;;;;;1.17;0.80;;;23.80;99.90;;;;;;5116117;28;20200;-50
2023/08/05 10:06:37;;;;;;;0.93;0.83;;;23.80;99.90;;;;;;5118106;28;20272;-51
2023/08/05 10:09:16;;;;;;;3.33;1.13;;;23.80;99.90;;;;;;5100146;28;20182;-50
2023/08/05 10:11:42;;;;;;;1.20;1.00;;;23.90;99.90;;;;;;5113644;28;20227;-51
2023/08/05 10:14:10;;;;;;;1.57;1.03;;;24.00;99.90;;;;;;5078810;28;20669;-52
2023/08/05 10:16:39;;;;;;;1.47;0.90;;;24.10;99.90;;;;;;5095448;28;20198;-52
2023/08/05 10:19:06;;;;;;;1.30;1.20;;;24.20;99.90;;;;;;5096662;28;20613;-51
2023/08/05 10:21:41;;;;;;;1.30;0.97;;;24.30;99.90;;;;;;5095603;28;20277;-51
2023/08/05 10:24:06;;;;;;;2.20;1.20;;;24.30;99.90;;;;;;5095307;28;20205;-53
2023/08/05 10:26:43;;;;;;;3.77;1.40;;;24.30;99.90;;;;;;5114738;28;20315;-51
2023/08/05 10:29:50;;;;;;;2.13;1.10;;;24.30;99.90;;;;;;5116151;28;20170;-50
2023/08/05 10:32:15;;;;;;;2.77;1.20;;;24.30;99.90;;;;;;5116910;28;20272;-51
2023/08/05 10:34:41;;;;;;;4.10;1.20;;;24.20;99.90;;;;;;5118447;28;20186;-46
2023/08/05 10:37:07;;;;;;;1.27;1.00;;;24.20;99.90;;;;;;5116145;28;20206;-45
2023/08/05 10:39:39;;;;;;;1.73;1.00;;;24.10;99.90;;;;;;5100595;28;20191;-46
2023/08/05 10:42:27;;;;;;;2.63;1.33;;;24.00;99.90;;;;;;5120280;28;20186;-45
2023/08/05 10:44:54;;;;;;;1.27;1.10;;;23.90;99.90;;;;;;5102495;28;20606;-46
2023/08/05 10:47:21;;;;;;;3.43;2.00;;;23.90;99.90;;;;;;5121321;28;20217;-51
2023/08/05 10:50:00;;;;;;;1.83;1.33;;;23.90;99.90;;;;;;5118886;28;20178;-51
2023/08/05 10:52:56;;;;;;;1.43;1.13;;;24.00;99.90;;;;;;5117841;28;20166;-50
2023/08/05 10:55:29;;;;;;;2.07;1.10;;;24.00;99.90;;;;;;5085557;28;20287;-49
2023/08/05 10:58:38;;;;;;;1.77;1.40;;;24.00;99.90;;;;;;5117543;28;20174;-51
2023/08/05 11:01:08;;;;;;;3.80;1.50;;;23.90;99.90;;;;;;5098097;28;20535;-45
2023/08/05 11:07:26;;;;;;;1.53;1.30;;;24.00;99.90;;;;;;5113445;28;20628;-52
2023/08/05 11:20:35;;;;;;;3.53;1.33;;;24.50;99.90;;;;;;5116658;28;20177;-44
2023/08/05 11:23:01;;;;;;;2.43;1.50;;;24.50;99.90;;;;;;5117458;28;20203;-53
2023/08/05 11:25:35;;;;;;;2.40;1.40;;;24.60;99.90;;;;;;5098805;28;20682;-51
2023/08/05 11:28:29;;;;;;;1.43;1.27;;;24.60;99.90;;;;;;5098693;28;20194;-51
2023/08/05 11:31:14;;;;;;;1.53;1.43;;;24.80;99.90;;;;;;5099074;28;20192;-50
2023/08/05 11:37:20;;;;;;;2.20;1.37;;;24.80;99.90;;;;;;5117186;28;20284;-45
2023/08/05 11:40:04;;;;;;;1.60;1.50;;;24.60;99.90;;;;;;5064737;28;20542;-45
2023/08/05 11:46:02;;;;;;;1.27;1.17;;;24.40;99.90;;;;;;5059127;28;20300;-52
2023/08/05 11:48:28;;;;;;;2.37;1.57;;;24.20;99.90;;;;;;5098631;28;20231;-50
2023/08/05 11:50:59;;;;;;;9.80;1.60;;;23.80;99.90;;;;;;5116721;28;20247;-45
2023/08/05 11:53:28;;;;;;;3.83;1.40;;;23.30;99.90;;;;;;5116658;28;20175;-50
2023/08/05 11:55:55;;;;;;;3.50;1.60;;;22.90;99.90;;;;;;5098391;28;20567;-50
2023/08/05 11:58:23;;;;;;;3.17;1.30;;;22.60;99.90;;;;;;5116602;28;20174;-50
2023/08/05 12:00:53;;;;;;;1.33;1.23;;;22.50;99.90;;;;;;5097437;28;20530;-49
2023/08/05 12:03:19;;;;;;;1.70;1.30;;;22.50;99.90;;;;;;5116516;28;20183;-51
2023/08/05 12:05:46;;;;;;;3.10;1.40;;;22.50;99.90;;;;;;5116254;28;20290;-46
2023/08/05 12:08:13;;;;;;;3.20;1.50;;;22.60;99.90;;;;;;5116323;28;20268;-53
2023/08/05 12:10:39;;;;;;;2.10;1.30;;;22.70;99.90;;;;;;5098019;28;20646;-51
2023/08/05 12:13:08;;;;;;;3.73;1.47;;;22.90;99.90;;;;;;5116435;28;20189;-46
2023/08/05 12:15:34;;;;;;;2.77;1.63;;;22.90;99.90;;;;;;5116002;28;20604;-44
2023/08/05 12:18:03;;;;;;;3.83;1.60;;;23.00;99.90;;;;;;5116123;28;20183;-52
2023/08/05 12:20:32;;;;;;;3.07;1.77;;;22.90;99.90;;;;;;5097855;28;20530;-50
2023/08/05 12:22:58;;;;;;;4.30;1.73;;;22.80;99.90;;;;;;5116355;28;20178;-52
2023/08/05 12:25:25;;;;;;;2.03;1.70;;;22.60;99.90;;;;;;5115935;28;20220;-51
2023/08/05 12:27:51;;;;;;;3.33;1.33;;;22.60;99.90;;;;;;5116006;28;20201;-51
2023/08/05 12:30:17;;;;;;;2.63;1.57;;;22.60;99.90;;;;;;5097915;28;20186;-51
2023/08/05 12:32:43;;;;;;;1.53;1.43;;;22.60;99.90;;;;;;5116514;28;20178;-52
2023/08/05 12:35:10;;;;;;;1.83;1.33;;;22.60;99.90;;;;;;5116183;28;20185;-46
2023/08/05 12:37:38;;;;;;;1.40;1.30;;;22.50;99.90;;;;;;5116229;28;20646;-52
2023/08/05 12:40:08;;;;;;;1.87;1.40;;;22.60;99.90;;;;;;5116235;28;20187;-45
2023/08/05 12:42:34;;;;;;;1.77;1.20;;;22.70;99.90;;;;;;5096960;28;20234;-50
2023/08/05 12:45:03;;;;;;;4.23;1.37;;;22.60;99.90;;;;;;5116103;28;20275;-45
2023/08/05 12:47:33;;;;;;;1.30;1.20;;;22.60;99.90;;;;;;5115691;28;20194;-45
2023/08/05 12:50:00;;;;;;;1.70;1.40;;;22.50;99.90;;;;;;5115674;28;20243;-50
2023/08/05 12:52:26;;;;;;;3.87;1.30;;;22.40;99.90;;;;;;5115663;28;20178;-46
2023/08/05 12:54:52;;;;;;;2.50;1.60;;;22.30;99.90;;;;;;5115480;28;20194;-51
2023/08/05 12:57:18;;;;;;;2.20;1.40;;;22.20;99.90;;;;;;5097240;28;20731;-52
2023/08/05 12:59:45;;;;;;;4.00;1.60;;;22.10;99.90;;;;;;5096985;28;20277;-50
2023/08/05 13:02:11;;;;;;;2.83;1.43;;;22.00;99.90;;;;;;5115485;28;20660;-45
2023/08/05 13:04:37;;;;;;;2.13;1.50;;;21.80;99.90;;;;;;5097198;28;20224;-50
2023/08/05 13:07:03;;;;;;;3.10;1.80;;;21.80;99.90;;;;;;5115914;28;20289;-45
2023/08/05 13:09:31;;;;;;;2.00;1.47;;;21.60;99.90;;;;;;5115679;28;20186;-46
2023/08/05 13:11:57;;;;;;;1.30;1.20;;;21.60;99.90;;;;;;5115283;28;20197;-52
2023/08/05 13:14:23;;;;;;;2.43;1.57;;;21.50;99.90;;;;;;5097070;28;20239;-44
2023/08/05 13:16:49;;;;;;;1.70;1.60;;;21.40;99.90;;;;;;5097123;28;20627;-51
2023/08/05 13:19:16;;;;;;;2.83;1.50;;;21.30;99.90;;;;;;5115535;28;20178;-51
2023/08/05 13:21:42;;;;;;;2.33;1.70;;;21.20;99.90;;;;;;5115215;28;20239;-51
2023/08/05 13:24:08;;;;;;;2.43;1.60;;;21.10;99.90;;;;;;5115265;28;20229;-45
2023/08/05 13:26:34;;;;;;;2.77;1.40;;;20.90;99.90;;;;;;5096689;28;20552;-43
2023/08/05 13:29:00;;;;;;;2.63;1.17;;;20.70;99.90;;;;;;5097014;28;20561;-45